createdAt,value
2019-05-26T00:00:10.782Z,101189.73
2019-05-26T00:02:39.193Z,101186.39
2019-05-26T00:05:09.449Z,101178.33
2019-05-26T00:07:37.862Z,101174.64
2019-05-26T00:10:11.659Z,101173.64
2019-05-26T00:12:40.065Z,101175.31
2019-05-26T00:15:12.956Z,101180.77
2019-05-26T00:17:41.382Z,101181.05
2019-05-26T00:20:13.437Z,101177.62
2019-05-26T00:22:41.851Z,101174.21
2019-05-26T00:25:10.455Z,101173.98
2019-05-26T00:27:41.517Z,101166.80
2019-05-26T00:30:14.163Z,101162.30
2019-05-26T00:32:42.720Z,101155.48
2019-05-26T00:35:11.511Z,101153.91
2019-05-26T00:37:49.037Z,101156.64
2019-05-26T00:40:13.664Z,101149.80
2019-05-26T00:42:44.278Z,101143.56
2019-05-26T00:45:13.021Z,101139.79
2019-05-26T00:47:41.477Z,101135.59
2019-05-26T00:50:11.391Z,101133.09
2019-05-26T00:52:39.867Z,101132.22
2019-05-26T00:55:09.146Z,101130.25
2019-05-26T00:57:37.597Z,101122.16
2019-05-26T01:00:09.106Z,101120.49
2019-05-26T01:02:37.523Z,101115.66
2019-05-26T01:05:08.068Z,101110.65
2019-05-26T01:07:39.656Z,101100.00
2019-05-26T01:10:12.077Z,101105.02
2019-05-26T01:12:40.481Z,101099.59
2019-05-26T01:15:11.344Z,101091.78
2019-05-26T01:17:40.998Z,101092.47
2019-05-26T01:20:11.392Z,101088.48
2019-05-26T01:22:39.809Z,101090.50
2019-05-26T01:25:09.572Z,101088.30
2019-05-26T01:27:37.979Z,101083.84
2019-05-26T01:30:08.551Z,101078.17
2019-05-26T01:32:40.748Z,101073.38
2019-05-26T01:35:09.615Z,101076.84
2019-05-26T01:37:39.721Z,101074.08
2019-05-26T01:40:09.091Z,101072.92
2019-05-26T01:42:37.492Z,101073.27
2019-05-26T01:45:08.593Z,101077.00
2019-05-26T01:47:41.014Z,101065.72
2019-05-26T01:50:09.706Z,101065.67
2019-05-26T01:52:38.148Z,101067.00
2019-05-26T01:55:11.113Z,101070.09
2019-05-26T01:57:39.517Z,101059.15
2019-05-26T02:00:09.474Z,101064.09
2019-05-26T02:02:37.873Z,101060.14
2019-05-26T02:05:06.656Z,101054.13
2019-05-26T02:07:35.061Z,101052.16
2019-05-26T02:10:05.307Z,101052.98
2019-05-26T02:12:33.744Z,101050.31
2019-05-26T02:15:04.908Z,101047.09
2019-05-26T02:17:35.756Z,101046.53
2019-05-26T02:20:09.637Z,101046.31
2019-05-26T02:22:38.065Z,101045.94
2019-05-26T02:25:08.705Z,101042.55
2019-05-26T02:27:37.124Z,101037.61
2019-05-26T02:30:13.136Z,101037.56
2019-05-26T02:32:40.896Z,101034.61
2019-05-26T02:35:10.378Z,101035.08
2019-05-26T02:37:41.623Z,101023.45
2019-05-26T02:40:12.051Z,101020.95
2019-05-26T02:42:40.531Z,101015.45
2019-05-26T02:45:10.242Z,101017.52
2019-05-26T02:47:38.672Z,101010.52
2019-05-26T02:50:08.112Z,101014.34
2019-05-26T02:52:36.626Z,101007.30
2019-05-26T02:55:09.376Z,101004.13
2019-05-26T02:57:37.770Z,101005.80
2019-05-26T03:00:10.469Z,101004.22
2019-05-26T03:02:39.433Z,101002.80
2019-05-26T03:05:11.897Z,101009.28
2019-05-26T03:07:42.283Z,101010.31
2019-05-26T03:10:16.516Z,101019.88
2019-05-26T03:12:46.106Z,101012.15
2019-05-26T03:15:16.152Z,101006.01
2019-05-26T03:17:46.080Z,101007.72
2019-05-26T03:20:17.393Z,101007.85
2019-05-26T03:22:48.922Z,101002.36
2019-05-26T03:25:17.508Z,100998.09
2019-05-26T03:27:47.158Z,100998.80
2019-05-26T03:30:16.844Z,100998.60
2019-05-26T03:32:45.331Z,100995.63
2019-05-26T03:35:14.935Z,100988.80
2019-05-26T03:37:43.335Z,100989.11
2019-05-26T03:40:20.883Z,100985.43
2019-05-26T03:42:53.037Z,100974.58
2019-05-26T03:45:25.203Z,100970.13
2019-05-26T03:47:54.637Z,100960.67
2019-05-26T03:50:23.035Z,100956.67
2019-05-26T03:52:51.453Z,100960.62
2019-05-26T03:55:19.865Z,100946.80
2019-05-26T03:57:48.276Z,100946.85
2019-05-26T04:00:17.937Z,100947.17
2019-05-26T04:02:47.349Z,100931.87
2019-05-26T04:05:18.382Z,100935.02
2019-05-26T04:07:50.669Z,100927.37
2019-05-26T04:10:20.457Z,100927.53
2019-05-26T04:12:48.877Z,100934.86
2019-05-26T04:15:17.300Z,100926.70
2019-05-26T04:17:45.711Z,100923.24
2019-05-26T04:20:14.370Z,100925.59
2019-05-26T04:22:42.784Z,100918.27
2019-05-26T04:25:11.647Z,100919.77
2019-05-26T04:27:40.060Z,100913.11
2019-05-26T04:30:08.765Z,100914.92
2019-05-26T04:32:40.835Z,100916.27
2019-05-26T04:35:12.912Z,100908.94
2019-05-26T04:37:41.307Z,100908.92
2019-05-26T04:40:26.281Z,100908.27
2019-05-26T04:42:46.107Z,100912.44
2019-05-26T04:45:14.515Z,100907.77
2019-05-26T04:47:42.946Z,100913.09
2019-05-26T04:50:11.741Z,100909.75
2019-05-26T04:52:40.160Z,100914.54
2019-05-26T04:55:15.803Z,100910.19
2019-05-26T04:57:42.371Z,100906.17
2019-05-26T05:00:11.227Z,100908.67
2019-05-26T05:02:42.129Z,100905.31
2019-05-26T05:05:15.798Z,100899.52
2019-05-26T05:07:44.212Z,100902.85
2019-05-26T05:10:12.783Z,100889.67
2019-05-26T05:12:41.227Z,100892.82
2019-05-26T05:15:14.523Z,100883.27
2019-05-26T05:17:44.479Z,100876.96
2019-05-26T05:20:14.335Z,100872.11
2019-05-26T05:22:42.813Z,100875.09
2019-05-26T05:25:15.129Z,100867.64
2019-05-26T05:27:42.593Z,100858.16
2019-05-26T05:30:14.703Z,100860.31
2019-05-26T05:32:43.129Z,100863.24
2019-05-26T05:35:12.198Z,100852.16
2019-05-26T05:37:41.027Z,100843.80
2019-05-26T05:40:12.810Z,100850.53
2019-05-26T05:42:44.350Z,100844.92
2019-05-26T05:45:17.930Z,100841.70
2019-05-26T05:47:46.341Z,100838.05
2019-05-26T05:50:14.906Z,100837.73
2019-05-26T05:52:43.320Z,100838.61
2019-05-26T05:55:12.876Z,100829.34
2019-05-26T05:57:45.246Z,100826.12
2019-05-26T06:00:15.772Z,100828.23
2019-05-26T06:02:44.175Z,100825.98
2019-05-26T06:05:13.349Z,100821.80
2019-05-26T06:07:41.738Z,100822.75
2019-05-26T06:10:10.784Z,100824.78
2019-05-26T06:12:39.241Z,100820.11
2019-05-26T06:15:13.399Z,100822.89
2019-05-26T06:17:42.803Z,100817.34
2019-05-26T06:20:11.881Z,100817.69
2019-05-26T06:22:43.772Z,100815.48
2019-05-26T06:25:12.352Z,100803.16
2019-05-26T06:27:44.215Z,100804.89
2019-05-26T06:30:13.052Z,100799.71
2019-05-26T06:32:43.914Z,100795.77
2019-05-26T06:35:12.882Z,100794.27
2019-05-26T06:37:41.293Z,100791.72
2019-05-26T06:40:10.291Z,100784.38
2019-05-26T06:42:38.859Z,100791.72
2019-05-26T06:45:10.424Z,100791.03
2019-05-26T06:47:41.278Z,100795.08
2019-05-26T06:50:10.252Z,100783.25
2019-05-26T06:52:38.658Z,100781.33
2019-05-26T06:55:12.078Z,100783.87
2019-05-26T06:57:39.911Z,100779.23
2019-05-26T07:00:14.205Z,100771.53
2019-05-26T07:02:49.241Z,100775.96
2019-05-26T07:05:18.712Z,100779.92
2019-05-26T07:07:47.124Z,100779.87
2019-05-26T07:10:17.613Z,100782.45
2019-05-26T07:12:46.054Z,100780.23
2019-05-26T07:15:17.134Z,100772.15
2019-05-26T07:17:45.558Z,100774.19
2019-05-26T07:20:14.142Z,100767.55
2019-05-26T07:22:44.640Z,100769.34
2019-05-26T07:25:15.179Z,100763.18
2019-05-26T07:27:43.601Z,100760.50
2019-05-26T07:30:16.871Z,100762.93
2019-05-26T07:32:45.293Z,100765.97
2019-05-26T07:35:14.044Z,100760.35
2019-05-26T07:37:42.458Z,100760.28
2019-05-26T07:40:11.167Z,100750.50
2019-05-26T07:42:42.054Z,100754.28
2019-05-26T07:45:12.171Z,100742.73
2019-05-26T07:47:41.819Z,100745.69
2019-05-26T07:50:10.894Z,100752.13
2019-05-26T07:52:40.271Z,100743.84
2019-05-26T07:55:09.550Z,100740.10
2019-05-26T07:57:41.089Z,100738.07
2019-05-26T08:00:10.836Z,100740.67
2019-05-26T08:02:47.010Z,100738.70
2019-05-26T08:05:20.301Z,100742.12
2019-05-26T08:07:49.064Z,100737.56
2019-05-26T08:10:21.773Z,100733.44
2019-05-26T08:12:51.832Z,100732.50
2019-05-26T08:15:28.829Z,100731.17
2019-05-26T08:18:00.282Z,100732.61
2019-05-26T08:20:30.607Z,100741.69
2019-05-26T08:23:03.085Z,100728.06
2019-05-26T08:25:32.616Z,100731.70
2019-05-26T08:28:01.058Z,100725.27
2019-05-26T08:30:29.474Z,100724.44
2019-05-26T08:32:57.865Z,100718.16
2019-05-26T08:35:38.467Z,100720.42
2019-05-26T08:38:09.734Z,100711.52
2019-05-26T08:40:38.235Z,100706.55
2019-05-26T08:43:06.635Z,100701.16
2019-05-26T08:45:38.453Z,100698.70
2019-05-26T08:48:18.484Z,100689.60
2019-05-26T08:50:49.082Z,100688.45
2019-05-26T08:53:18.419Z,100693.51
2019-05-26T08:55:46.875Z,100689.62
2019-05-26T08:58:19.904Z,100685.79
2019-05-26T09:00:48.298Z,100691.05
2019-05-26T09:03:16.727Z,100690.53
2019-05-26T09:05:45.171Z,100681.41
2019-05-26T09:08:13.584Z,100680.52
2019-05-26T09:10:42.012Z,100679.70
2019-05-26T09:13:10.445Z,100680.02
2019-05-26T09:15:39.808Z,100667.29
2019-05-26T09:18:08.223Z,100673.88
2019-05-26T09:20:39.130Z,100666.88
2019-05-26T09:23:07.521Z,100667.00
2019-05-26T09:25:36.104Z,100661.79
2019-05-26T09:28:08.341Z,100668.75
2019-05-26T09:30:37.843Z,100674.64
2019-05-26T09:33:11.235Z,100673.19
2019-05-26T09:35:39.680Z,100667.37
2019-05-26T09:38:08.091Z,100669.22
2019-05-26T09:40:39.148Z,100669.70
2019-05-26T09:43:16.057Z,100667.19
2019-05-26T09:45:39.031Z,100672.92
2019-05-26T09:48:08.576Z,100674.53
2019-05-26T09:50:37.951Z,100683.63
2019-05-26T09:53:06.380Z,100683.23
2019-05-26T09:55:34.810Z,100696.22
2019-05-26T09:58:03.218Z,100684.02
2019-05-26T10:00:37.101Z,100683.48
2019-05-26T10:03:05.679Z,100678.84
2019-05-26T10:05:36.774Z,100684.06
2019-05-26T10:08:05.258Z,100675.03
2019-05-26T10:10:36.301Z,100677.98
2019-05-26T10:13:06.273Z,100676.06
2019-05-26T10:15:34.733Z,100688.05
2019-05-26T10:18:03.931Z,100673.28
2019-05-26T10:20:33.133Z,100669.67
2019-05-26T10:23:05.274Z,100665.92
2019-05-26T10:25:34.833Z,100671.66
2019-05-26T10:28:04.044Z,100677.11
2019-05-26T10:30:32.800Z,100670.76
2019-05-26T10:33:05.422Z,100671.07
2019-05-26T10:35:33.838Z,100669.52
2019-05-26T10:38:04.400Z,100672.88
2019-05-26T10:40:33.394Z,100671.74
2019-05-26T10:43:02.053Z,100665.05
2019-05-26T10:45:34.152Z,100670.81
2019-05-26T10:48:00.591Z,100669.64
2019-05-26T10:50:29.025Z,100663.72
2019-05-26T10:52:57.508Z,100668.79
2019-05-26T10:55:25.998Z,100664.77
2019-05-26T10:57:54.434Z,100665.73
2019-05-26T11:00:25.154Z,100663.97
2019-05-26T11:02:57.219Z,100660.63
2019-05-26T11:05:26.592Z,100659.79
2019-05-26T11:07:56.094Z,100658.45
2019-05-26T11:10:36.541Z,100661.52
2019-05-26T11:13:05.144Z,100650.52
2019-05-26T11:15:33.599Z,100649.76
2019-05-26T11:18:04.741Z,100643.68
2019-05-26T11:20:35.873Z,100656.45
2019-05-26T11:23:04.271Z,100644.91
2019-05-26T11:25:32.675Z,100646.93
2019-05-26T11:28:01.104Z,100647.03
2019-05-26T11:30:29.683Z,100638.09
2019-05-26T11:33:00.091Z,100630.45
2019-05-26T11:35:28.228Z,100632.70
2019-05-26T11:37:56.648Z,100631.86
2019-05-26T11:40:27.122Z,100634.05
2019-05-26T11:42:55.541Z,100630.70
2019-05-26T11:45:27.773Z,100628.47
2019-05-26T11:47:56.177Z,100618.05
2019-05-26T11:50:24.682Z,100621.36
2019-05-26T11:52:53.093Z,100625.06
2019-05-26T11:55:21.508Z,100618.98
2019-05-26T11:57:49.924Z,100615.88
2019-05-26T12:00:22.049Z,100611.44
2019-05-26T12:02:53.142Z,100612.77
2019-05-26T12:05:21.569Z,100607.36
2019-05-26T12:07:50.020Z,100613.36
2019-05-26T12:10:22.719Z,100604.30
2019-05-26T12:12:53.686Z,100613.98
2019-05-26T12:15:22.371Z,100603.77
2019-05-26T12:17:52.102Z,100598.83
2019-05-26T12:20:20.526Z,100603.89
2019-05-26T12:22:48.945Z,100602.48
2019-05-26T12:25:18.103Z,100597.01
2019-05-26T12:27:46.521Z,100593.27
2019-05-26T12:30:15.368Z,100590.22
2019-05-26T12:32:43.941Z,100589.91
2019-05-26T12:35:15.517Z,100585.85
2019-05-26T12:37:43.941Z,100588.77
2019-05-26T12:40:13.994Z,100587.48
2019-05-26T12:42:42.405Z,100591.06
2019-05-26T12:45:11.484Z,100580.97
2019-05-26T12:47:42.918Z,100582.69
2019-05-26T12:50:11.955Z,100583.77
2019-05-26T12:52:41.275Z,100580.80
2019-05-26T12:55:10.276Z,100581.59
2019-05-26T12:57:41.266Z,100577.53
2019-05-26T13:00:12.503Z,100577.47
2019-05-26T13:02:41.008Z,100575.17
2019-05-26T13:05:09.773Z,100573.39
2019-05-26T13:07:38.277Z,100575.58
2019-05-26T13:10:11.725Z,100565.47
2019-05-26T13:12:42.481Z,100566.62
2019-05-26T13:15:12.025Z,100564.69
2019-05-26T13:17:43.307Z,100555.95
2019-05-26T13:20:15.245Z,100550.72
2019-05-26T13:22:43.667Z,100559.11
2019-05-26T13:25:16.370Z,100557.02
2019-05-26T13:27:47.180Z,100553.08
2019-05-26T13:30:20.308Z,100550.70
2019-05-26T13:32:49.107Z,100537.42
2019-05-26T13:35:18.154Z,100538.29
2019-05-26T13:37:49.154Z,100536.20
2019-05-26T13:40:17.940Z,100536.56
2019-05-26T13:42:46.357Z,100534.67
2019-05-26T13:45:22.869Z,100528.80
2019-05-26T13:47:47.135Z,100529.34
2019-05-26T13:50:17.549Z,100528.23
2019-05-26T13:52:45.960Z,100517.63
2019-05-26T13:55:17.901Z,100517.80
2019-05-26T13:57:49.443Z,100515.81
2019-05-26T14:00:21.523Z,100515.13
2019-05-26T14:02:49.911Z,100516.84
2019-05-26T14:05:22.525Z,100515.72
2019-05-26T14:07:54.657Z,100516.92
2019-05-26T14:10:34.867Z,100515.52
2019-05-26T14:13:03.718Z,100510.93
2019-05-26T14:15:38.439Z,100510.82
2019-05-26T14:18:07.571Z,100510.82
2019-05-26T14:20:41.343Z,100505.17
2019-05-26T14:23:13.018Z,100506.88
2019-05-26T14:25:41.671Z,100505.77
2019-05-26T14:28:10.095Z,100502.47
2019-05-26T14:30:39.359Z,100501.14
2019-05-26T14:33:07.864Z,100499.67
2019-05-26T14:35:37.216Z,100501.70
2019-05-26T14:38:08.599Z,100504.44
2019-05-26T14:40:36.997Z,100506.77
2019-05-26T14:43:05.416Z,100507.72
2019-05-26T14:45:33.928Z,100506.15
2019-05-26T14:48:02.345Z,100514.48
2019-05-26T14:50:30.824Z,100518.16
2019-05-26T14:52:59.245Z,100502.44
2019-05-26T14:55:27.680Z,100492.98
2019-05-26T14:58:14.313Z,100499.65
2019-05-26T15:00:31.753Z,100496.34
2019-05-26T15:03:01.265Z,100491.33
2019-05-26T15:05:30.718Z,100488.13
2019-05-26T15:07:59.143Z,100479.47
2019-05-26T15:10:28.851Z,100484.19
2019-05-26T15:13:01.029Z,100484.63
2019-05-26T15:15:29.431Z,100484.94
2019-05-26T15:17:59.261Z,100472.02
2019-05-26T15:20:27.841Z,100479.54
2019-05-26T15:22:56.802Z,100470.83
2019-05-26T15:25:25.232Z,100475.77
2019-05-26T15:27:55.040Z,100477.66
2019-05-26T15:30:23.878Z,100478.27
2019-05-26T15:32:53.216Z,100492.71
2019-05-26T15:35:21.658Z,100480.39
2019-05-26T15:37:50.087Z,100472.27
2019-05-26T15:40:18.632Z,100472.08
2019-05-26T15:42:47.075Z,100461.01
2019-05-26T15:45:18.129Z,100452.65
2019-05-26T15:47:46.483Z,100446.97
2019-05-26T15:50:18.021Z,100447.70
2019-05-26T15:52:48.049Z,100445.02
2019-05-26T15:55:17.469Z,100431.31
2019-05-26T15:57:45.869Z,100428.02
2019-05-26T16:00:17.499Z,100419.98
2019-05-26T16:02:45.927Z,100414.29
2019-05-26T16:05:17.295Z,100404.56
2019-05-26T16:07:48.018Z,100404.56
2019-05-26T16:10:19.995Z,100397.27
2019-05-26T16:12:48.574Z,100400.48
2019-05-26T16:15:18.393Z,100402.95
2019-05-26T16:17:46.815Z,100389.73
2019-05-26T16:20:15.682Z,100380.83
2019-05-26T16:22:44.094Z,100385.14
2019-05-26T16:25:23.172Z,100377.14
2019-05-26T16:27:51.600Z,100371.66
2019-05-26T16:30:20.171Z,100368.30
2019-05-26T16:32:48.594Z,100365.59
2019-05-26T16:35:17.205Z,100362.52
2019-05-26T16:37:45.634Z,100362.70
2019-05-26T16:40:14.519Z,100365.99
2019-05-26T16:42:42.925Z,100363.28
2019-05-26T16:45:11.879Z,100363.75
2019-05-26T16:47:40.295Z,100361.67
2019-05-26T16:50:09.235Z,100356.27
2019-05-26T16:52:37.673Z,100351.72
2019-05-26T16:55:12.122Z,100345.45
2019-05-26T16:57:40.536Z,100353.47
2019-05-26T17:00:09.799Z,100359.30
2019-05-26T17:02:38.256Z,100367.95
2019-05-26T17:05:07.908Z,100363.34
2019-05-26T17:07:36.332Z,100371.96
2019-05-26T17:10:09.108Z,100365.47
2019-05-26T17:12:37.540Z,100365.11
2019-05-26T17:15:08.190Z,100363.66
2019-05-26T17:17:41.414Z,100367.23
2019-05-26T17:20:10.692Z,100372.45
2019-05-26T17:22:39.103Z,100376.16
2019-05-26T17:25:08.159Z,100376.88
2019-05-26T17:27:36.742Z,100380.80
2019-05-26T17:30:08.421Z,100380.70
2019-05-26T17:32:39.271Z,100382.17
2019-05-26T17:35:08.122Z,100392.08
2019-05-26T17:37:36.541Z,100393.06
2019-05-26T17:40:06.585Z,100406.00
2019-05-26T17:42:34.950Z,100407.28
2019-05-26T17:45:08.837Z,100400.95
2019-05-26T17:47:37.238Z,100408.38
2019-05-26T17:50:08.119Z,100404.03
2019-05-26T17:52:39.517Z,100407.69
2019-05-26T17:55:11.822Z,100410.37
2019-05-26T17:58:02.075Z,100418.98
2019-05-26T18:03:09.876Z,100418.85
2019-05-26T18:05:55.471Z,100407.69
2019-05-26T18:08:54.594Z,100412.47
2019-05-26T18:11:11.593Z,100410.13
2019-05-26T18:13:54.618Z,100408.70
2019-05-26T18:16:40.681Z,100405.82
2019-05-26T18:19:30.607Z,100405.98
2019-05-26T18:22:04.800Z,100407.72
2019-05-26T18:24:38.968Z,100411.46
2019-05-26T18:27:21.325Z,100416.14
2019-05-26T18:30:02.566Z,100405.23
2019-05-26T18:32:53.133Z,100407.44
2019-05-26T18:35:43.470Z,100408.64
2019-05-26T18:41:30.018Z,100403.41
2019-05-26T18:44:10.388Z,100406.80
2019-05-26T18:46:53.613Z,100409.98
2019-05-26T18:49:48.034Z,100405.22
2019-05-26T18:52:33.218Z,100409.94
2019-05-26T18:55:11.199Z,100399.30
2019-05-26T18:57:52.719Z,100404.73
2019-05-26T19:00:30.962Z,100394.48
2019-05-26T19:03:12.885Z,100394.66
2019-05-26T19:05:54.328Z,100395.52
2019-05-26T19:08:52.583Z,100385.09
2019-05-26T19:11:21.109Z,100393.99
2019-05-26T19:13:50.468Z,100384.36
2019-05-26T19:16:30.194Z,100386.03
2019-05-26T19:25:08.340Z,100381.38
2019-05-26T19:27:40.256Z,100379.41
2019-05-26T19:30:32.050Z,100382.46
2019-05-26T19:33:28.082Z,100372.48
2019-05-26T19:36:02.298Z,100376.92
2019-05-26T19:38:46.712Z,100368.64
2019-05-26T19:41:40.803Z,100375.48
2019-05-26T19:44:32.017Z,100371.14
2019-05-26T19:47:04.828Z,100373.92
2019-05-26T19:49:33.237Z,100370.34
2019-05-26T19:52:04.252Z,100377.27
2019-05-26T19:54:33.766Z,100372.52
2019-05-26T19:57:07.780Z,100374.55
2019-05-26T19:59:36.179Z,100361.75
2019-05-26T20:02:17.794Z,100367.13
2019-05-26T20:04:39.295Z,100360.72
2019-05-26T20:07:10.098Z,100362.91
2019-05-26T20:09:43.793Z,100358.98
2019-05-26T20:12:12.200Z,100351.03
2019-05-26T20:14:44.641Z,100340.53
2019-05-26T20:17:14.149Z,100340.53
2019-05-26T20:19:42.575Z,100347.22
2019-05-26T20:22:10.960Z,100346.68
2019-05-26T20:24:43.192Z,100342.97
2019-05-26T20:27:13.770Z,100342.25
2019-05-26T20:29:42.218Z,100341.92
2019-05-26T20:32:10.603Z,100334.31
2019-05-26T20:34:39.001Z,100334.02
2019-05-26T20:37:10.997Z,100337.11
2019-05-26T20:39:39.824Z,100333.39
2019-05-26T20:42:12.103Z,100333.08
2019-05-26T20:44:40.549Z,100333.48
2019-05-26T20:47:10.012Z,100332.41
2019-05-26T20:49:45.235Z,100165.29
2019-05-26T20:52:08.746Z,100331.84
2019-05-26T20:54:37.523Z,100328.34
2019-05-26T20:57:08.413Z,100326.08
2019-05-26T20:59:36.849Z,100334.42
2019-05-26T21:02:07.731Z,100331.70
2019-05-26T21:04:36.162Z,100325.84
2019-05-26T21:07:04.578Z,100332.19
2019-05-26T21:09:32.998Z,100329.09
2019-05-26T21:12:01.412Z,100333.03
2019-05-26T21:14:33.637Z,100338.58
2019-05-26T21:17:04.685Z,100335.89
2019-05-26T21:19:36.578Z,100327.36
2019-05-26T21:22:07.677Z,100327.97
2019-05-26T21:24:38.654Z,100326.42
2019-05-26T21:27:07.231Z,100322.76
2019-05-26T21:29:35.655Z,100327.41
2019-05-26T21:32:04.146Z,100324.28
2019-05-26T21:34:35.465Z,100326.24
2019-05-26T21:37:03.875Z,100323.69
2019-05-26T21:39:32.304Z,100324.28
2019-05-26T21:42:00.718Z,100326.16
2019-05-26T21:44:29.157Z,100325.03
2019-05-26T21:46:58.542Z,100325.84
2019-05-26T21:49:26.943Z,100325.13
2019-05-26T21:51:55.382Z,100326.67
2019-05-26T21:54:29.678Z,100322.13
2019-05-26T21:56:57.805Z,100321.74
2019-05-26T21:59:26.248Z,100328.33
2019-05-26T22:01:57.163Z,100326.14
2019-05-26T22:04:25.583Z,100324.19
2019-05-26T22:06:54.010Z,100320.25
2019-05-26T22:09:22.434Z,100316.47
2019-05-26T22:11:54.706Z,100313.61
2019-05-26T22:14:22.780Z,100328.55
2019-05-26T22:16:52.181Z,100315.83
2019-05-26T22:19:20.579Z,100320.30
2019-05-26T22:21:52.550Z,100316.98
2019-05-26T22:24:20.165Z,100314.26
2019-05-26T22:26:48.596Z,100310.37
2019-05-26T22:29:18.037Z,100303.98
2019-05-26T22:31:50.485Z,100307.68
2019-05-26T22:34:18.903Z,100308.91
2019-05-26T22:36:47.327Z,100302.44
2019-05-26T22:39:21.844Z,100299.09
2019-05-26T22:41:50.264Z,100305.66
2019-05-26T22:44:18.670Z,100306.47
2019-05-26T22:46:47.073Z,100298.63
2019-05-26T22:49:15.503Z,100298.68
2019-05-26T22:51:43.927Z,100301.67
2019-05-26T22:54:12.563Z,100297.87
2019-05-26T22:56:47.006Z,100296.22
2019-05-26T22:59:19.641Z,100288.66
2019-05-26T23:01:48.050Z,100285.67
2019-05-26T23:04:16.470Z,100282.41
2019-05-26T23:06:47.563Z,100276.02
2019-05-26T23:09:16.042Z,100275.83
2019-05-26T23:11:44.434Z,100268.96
2019-05-26T23:14:12.850Z,100276.23
2019-05-26T23:16:41.289Z,100278.30
2019-05-26T23:19:18.952Z,100279.50
2019-05-26T23:21:43.864Z,100275.35
2019-05-26T23:24:13.405Z,100275.70
2019-05-26T23:26:41.797Z,100272.17
2019-05-26T23:29:10.472Z,100267.78
2019-05-26T23:31:42.608Z,100265.38
2019-05-26T23:34:11.034Z,100262.02
2019-05-26T23:36:41.920Z,100259.44
2019-05-26T23:39:10.399Z,100264.35
2019-05-26T23:41:41.254Z,100258.90
2019-05-26T23:44:09.698Z,100265.11
2019-05-26T23:46:50.685Z,100257.87
2019-05-26T23:49:23.171Z,100256.53
2019-05-26T23:51:51.825Z,100256.12
2019-05-26T23:54:23.566Z,100253.27
2019-05-26T23:56:51.989Z,100246.16
2019-05-26T23:59:22.869Z,100242.01
